sensor_id;sensor_type;location;lat;lon;timestamp;P1;durP1;ratioP1;P2;durP2;ratioP2
6785;SDS011;3430;51.192;6.048;2023-04-19T00:02:16;7.63;;;6.60;;
6785;SDS011;3430;51.192;6.048;2023-04-19T00:04:43;9.60;;;6.83;;
6785;SDS011;3430;51.192;6.048;2023-04-19T00:07:11;7.37;;;6.60;;
6785;SDS011;3430;51.192;6.048;2023-04-19T00:09:37;9.70;;;7.23;;
6785;SDS011;3430;51.192;6.048;2023-04-19T00:12:02;8.33;;;6.77;;
6785;SDS011;3430;51.192;6.048;2023-04-19T00:14:28;10.33;;;7.50;;
6785;SDS011;3430;51.192;6.048;2023-04-19T00:16:53;9.13;;;7.20;;
6785;SDS011;3430;51.192;6.048;2023-04-19T00:19:19;6.63;;;5.93;;
6785;SDS011;3430;51.192;6.048;2023-04-19T00:21:45;7.43;;;6.10;;
6785;SDS011;3430;51.192;6.048;2023-04-19T00:24:11;7.43;;;6.73;;
6785;SDS011;3430;51.192;6.048;2023-04-19T00:26:36;8.10;;;6.87;;
6785;SDS011;3430;51.192;6.048;2023-04-19T00:29:02;8.57;;;6.63;;
6785;SDS011;3430;51.192;6.048;2023-04-19T00:31:27;7.33;;;6.57;;
6785;SDS011;3430;51.192;6.048;2023-04-19T00:33:53;8.00;;;6.70;;
6785;SDS011;3430;51.192;6.048;2023-04-19T00:36:18;9.37;;;6.90;;
6785;SDS011;3430;51.192;6.048;2023-04-19T00:38:43;7.27;;;6.30;;
6785;SDS011;3430;51.192;6.048;2023-04-19T00:41:09;8.97;;;6.67;;
6785;SDS011;3430;51.192;6.048;2023-04-19T00:43:34;8.07;;;7.20;;
6785;SDS011;3430;51.192;6.048;2023-04-19T00:45:59;7.17;;;6.47;;
6785;SDS011;3430;51.192;6.048;2023-04-19T00:48:25;8.57;;;7.10;;
6785;SDS011;3430;51.192;6.048;2023-04-19T00:50:50;7.50;;;6.53;;
6785;SDS011;3430;51.192;6.048;2023-04-19T00:53:16;9.93;;;7.43;;
6785;SDS011;3430;51.192;6.048;2023-04-19T00:55:41;8.47;;;6.80;;
6785;SDS011;3430;51.192;6.048;2023-04-19T00:58:07;7.47;;;6.53;;
6785;SDS011;3430;51.192;6.048;2023-04-19T01:00:33;7.50;;;6.73;;
6785;SDS011;3430;51.192;6.048;2023-04-19T01:02:59;7.80;;;6.53;;
6785;SDS011;3430;51.192;6.048;2023-04-19T01:05:25;8.33;;;6.50;;
6785;SDS011;3430;51.192;6.048;2023-04-19T01:07:50;8.90;;;6.70;;
6785;SDS011;3430;51.192;6.048;2023-04-19T01:10:15;6.87;;;6.07;;
6785;SDS011;3430;51.192;6.048;2023-04-19T01:12:41;8.50;;;6.60;;
6785;SDS011;3430;51.192;6.048;2023-04-19T01:15:07;8.70;;;7.00;;
6785;SDS011;3430;51.192;6.048;2023-04-19T01:17:32;8.10;;;6.30;;
6785;SDS011;3430;51.192;6.048;2023-04-19T01:20:02;7.43;;;6.63;;
6785;SDS011;3430;51.192;6.048;2023-04-19T01:22:28;6.97;;;5.93;;
6785;SDS011;3430;51.192;6.048;2023-04-19T01:24:54;8.57;;;6.90;;
6785;SDS011;3430;51.192;6.048;2023-04-19T01:27:20;7.50;;;6.37;;
6785;SDS011;3430;51.192;6.048;2023-04-19T01:29:45;9.30;;;7.17;;
6785;SDS011;3430;51.192;6.048;2023-04-19T01:32:10;8.87;;;7.03;;
6785;SDS011;3430;51.192;6.048;2023-04-19T01:34:39;8.27;;;6.30;;
6785;SDS011;3430;51.192;6.048;2023-04-19T01:37:04;8.30;;;6.70;;
6785;SDS011;3430;51.192;6.048;2023-04-19T01:39:30;9.97;;;7.37;;
6785;SDS011;3430;51.192;6.048;2023-04-19T01:41:55;9.13;;;6.97;;
6785;SDS011;3430;51.192;6.048;2023-04-19T01:44:20;9.13;;;6.40;;
6785;SDS011;3430;51.192;6.048;2023-04-19T01:46:46;9.00;;;7.43;;
6785;SDS011;3430;51.192;6.048;2023-04-19T01:49:12;8.43;;;6.63;;
6785;SDS011;3430;51.192;6.048;2023-04-19T01:51:37;9.83;;;7.30;;
6785;SDS011;3430;51.192;6.048;2023-04-19T01:54:03;8.80;;;6.50;;
6785;SDS011;3430;51.192;6.048;2023-04-19T01:56:28;8.93;;;6.60;;
6785;SDS011;3430;51.192;6.048;2023-04-19T01:58:54;8.13;;;6.20;;
6785;SDS011;3430;51.192;6.048;2023-04-19T02:01:20;7.40;;;6.60;;
6785;SDS011;3430;51.192;6.048;2023-04-19T02:03:45;10.47;;;6.50;;
6785;SDS011;3430;51.192;6.048;2023-04-19T02:06:11;7.60;;;6.50;;
6785;SDS011;3430;51.192;6.048;2023-04-19T02:08:37;10.40;;;6.50;;
6785;SDS011;3430;51.192;6.048;2023-04-19T02:11:09;8.53;;;6.83;;
6785;SDS011;3430;51.192;6.048;2023-04-19T02:13:35;9.83;;;7.30;;
6785;SDS011;3430;51.192;6.048;2023-04-19T02:16:00;10.00;;;7.27;;
6785;SDS011;3430;51.192;6.048;2023-04-19T02:18:30;9.63;;;7.40;;
6785;SDS011;3430;51.192;6.048;2023-04-19T02:20:56;8.40;;;6.53;;
6785;SDS011;3430;51.192;6.048;2023-04-19T02:23:21;8.37;;;6.80;;
6785;SDS011;3430;51.192;6.048;2023-04-19T02:25:47;8.47;;;6.63;;
6785;SDS011;3430;51.192;6.048;2023-04-19T02:28:12;10.03;;;7.03;;
6785;SDS011;3430;51.192;6.048;2023-04-19T02:30:38;9.10;;;7.80;;
6785;SDS011;3430;51.192;6.048;2023-04-19T02:33:03;8.70;;;6.77;;
6785;SDS011;3430;51.192;6.048;2023-04-19T02:35:29;8.10;;;7.30;;
6785;SDS011;3430;51.192;6.048;2023-04-19T02:37:54;8.00;;;6.57;;
6785;SDS011;3430;51.192;6.048;2023-04-19T02:40:20;9.43;;;6.83;;
6785;SDS011;3430;51.192;6.048;2023-04-19T02:42:47;8.73;;;6.83;;
6785;SDS011;3430;51.192;6.048;2023-04-19T02:45:12;6.73;;;6.10;;
6785;SDS011;3430;51.192;6.048;2023-04-19T02:47:38;9.30;;;7.07;;
6785;SDS011;3430;51.192;6.048;2023-04-19T02:50:03;8.23;;;6.60;;
6785;SDS011;3430;51.192;6.048;2023-04-19T02:52:32;11.20;;;7.20;;
6785;SDS011;3430;51.192;6.048;2023-04-19T02:54:57;9.90;;;6.70;;
6785;SDS011;3430;51.192;6.048;2023-04-19T02:57:22;10.17;;;6.97;;
6785;SDS011;3430;51.192;6.048;2023-04-19T02:59:48;9.50;;;7.13;;
6785;SDS011;3430;51.192;6.048;2023-04-19T03:02:13;9.43;;;7.13;;
6785;SDS011;3430;51.192;6.048;2023-04-19T03:04:39;7.70;;;6.83;;
6785;SDS011;3430;51.192;6.048;2023-04-19T03:07:05;9.73;;;6.73;;
6785;SDS011;3430;51.192;6.048;2023-04-19T03:09:31;9.07;;;7.10;;
6785;SDS011;3430;51.192;6.048;2023-04-19T03:11:56;9.07;;;6.90;;
6785;SDS011;3430;51.192;6.048;2023-04-19T03:14:21;10.87;;;7.10;;
6785;SDS011;3430;51.192;6.048;2023-04-19T03:16:47;10.03;;;7.10;;
6785;SDS011;3430;51.192;6.048;2023-04-19T03:19:12;9.40;;;7.10;;
6785;SDS011;3430;51.192;6.048;2023-04-19T03:21:37;7.67;;;6.83;;
6785;SDS011;3430;51.192;6.048;2023-04-19T03:24:03;7.63;;;6.40;;
6785;SDS011;3430;51.192;6.048;2023-04-19T03:26:28;12.87;;;7.00;;
6785;SDS011;3430;51.192;6.048;2023-04-19T03:28:53;9.20;;;7.03;;
6785;SDS011;3430;51.192;6.048;2023-04-19T03:31:19;12.37;;;8.50;;
6785;SDS011;3430;51.192;6.048;2023-04-19T03:33:44;8.53;;;6.83;;
6785;SDS011;3430;51.192;6.048;2023-04-19T03:36:09;7.47;;;6.30;;
6785;SDS011;3430;51.192;6.048;2023-04-19T03:38:35;7.77;;;6.50;;
6785;SDS011;3430;51.192;6.048;2023-04-19T03:41:01;8.47;;;6.60;;
6785;SDS011;3430;51.192;6.048;2023-04-19T03:43:26;8.50;;;6.93;;
6785;SDS011;3430;51.192;6.048;2023-04-19T03:45:51;8.60;;;6.63;;
6785;SDS011;3430;51.192;6.048;2023-04-19T03:48:17;7.93;;;6.73;;
6785;SDS011;3430;51.192;6.048;2023-04-19T03:50:42;7.77;;;6.43;;
6785;SDS011;3430;51.192;6.048;2023-04-19T03:53:07;9.93;;;7.67;;
6785;SDS011;3430;51.192;6.048;2023-04-19T03:55:33;7.60;;;6.77;;
6785;SDS011;3430;51.192;6.048;2023-04-19T03:57:58;9.57;;;7.40;;
6785;SDS011;3430;51.192;6.048;2023-04-19T04:00:23;8.57;;;6.70;;
6785;SDS011;3430;51.192;6.048;2023-04-19T04:02:49;8.20;;;6.23;;
6785;SDS011;3430;51.192;6.048;2023-04-19T04:05:14;9.50;;;6.20;;
6785;SDS011;3430;51.192;6.048;2023-04-19T04:07:39;8.90;;;7.37;;
6785;SDS011;3430;51.192;6.048;2023-04-19T04:10:05;10.47;;;6.47;;
6785;SDS011;3430;51.192;6.048;2023-04-19T04:12:31;8.53;;;7.00;;
6785;SDS011;3430;51.192;6.048;2023-04-19T04:14:56;12.83;;;7.87;;
6785;SDS011;3430;51.192;6.048;2023-04-19T04:17:21;7.77;;;6.33;;
6785;SDS011;3430;51.192;6.048;2023-04-19T04:19:48;7.53;;;6.30;;
6785;SDS011;3430;51.192;6.048;2023-04-19T04:22:13;8.73;;;6.63;;
6785;SDS011;3430;51.192;6.048;2023-04-19T04:24:39;7.87;;;6.83;;
6785;SDS011;3430;51.192;6.048;2023-04-19T04:27:06;7.40;;;6.33;;
6785;SDS011;3430;51.192;6.048;2023-04-19T04:29:37;8.90;;;7.27;;
6785;SDS011;3430;51.192;6.048;2023-04-19T04:32:06;9.77;;;6.40;;
6785;SDS011;3430;51.192;6.048;2023-04-19T04:34:35;7.83;;;6.27;;
6785;SDS011;3430;51.192;6.048;2023-04-19T04:37:01;8.53;;;6.90;;
6785;SDS011;3430;51.192;6.048;2023-04-19T04:39:28;9.47;;;6.37;;
6785;SDS011;3430;51.192;6.048;2023-04-19T04:41:53;7.77;;;6.03;;
6785;SDS011;3430;51.192;6.048;2023-04-19T04:44:18;9.50;;;7.10;;
6785;SDS011;3430;51.192;6.048;2023-04-19T04:46:44;8.10;;;6.63;;
6785;SDS011;3430;51.192;6.048;2023-04-19T04:49:10;8.50;;;6.87;;
6785;SDS011;3430;51.192;6.048;2023-04-19T04:51:35;8.23;;;6.40;;
6785;SDS011;3430;51.192;6.048;2023-04-19T04:54:01;9.50;;;6.63;;
6785;SDS011;3430;51.192;6.048;2023-04-19T04:56:26;8.77;;;6.30;;
6785;SDS011;3430;51.192;6.048;2023-04-19T04:58:52;7.73;;;6.20;;
6785;SDS011;3430;51.192;6.048;2023-04-19T05:01:17;8.03;;;6.67;;
6785;SDS011;3430;51.192;6.048;2023-04-19T05:03:44;9.30;;;6.67;;
6785;SDS011;3430;51.192;6.048;2023-04-19T05:06:09;7.97;;;6.40;;
6785;SDS011;3430;51.192;6.048;2023-04-19T05:08:35;7.10;;;5.63;;
6785;SDS011;3430;51.192;6.048;2023-04-19T05:11:00;6.97;;;6.17;;
6785;SDS011;3430;51.192;6.048;2023-04-19T05:13:26;7.73;;;6.20;;
6785;SDS011;3430;51.192;6.048;2023-04-19T05:15:51;6.63;;;5.70;;
6785;SDS011;3430;51.192;6.048;2023-04-19T05:18:16;8.40;;;5.97;;
6785;SDS011;3430;51.192;6.048;2023-04-19T05:20:41;10.27;;;6.27;;
6785;SDS011;3430;51.192;6.048;2023-04-19T05:23:07;6.43;;;5.77;;
6785;SDS011;3430;51.192;6.048;2023-04-19T05:25:35;8.93;;;7.00;;
6785;SDS011;3430;51.192;6.048;2023-04-19T05:28:01;7.47;;;6.33;;
6785;SDS011;3430;51.192;6.048;2023-04-19T05:30:27;8.33;;;6.27;;
6785;SDS011;3430;51.192;6.048;2023-04-19T05:32:52;6.87;;;5.40;;
6785;SDS011;3430;51.192;6.048;2023-04-19T05:35:18;6.50;;;5.80;;
6785;SDS011;3430;51.192;6.048;2023-04-19T05:37:44;7.37;;;5.87;;
6785;SDS011;3430;51.192;6.048;2023-04-19T05:40:09;6.97;;;5.73;;
6785;SDS011;3430;51.192;6.048;2023-04-19T05:42:34;6.90;;;6.20;;
6785;SDS011;3430;51.192;6.048;2023-04-19T05:45:00;6.93;;;6.13;;
6785;SDS011;3430;51.192;6.048;2023-04-19T05:47:25;8.90;;;6.00;;
6785;SDS011;3430;51.192;6.048;2023-04-19T05:49:51;6.30;;;5.67;;
6785;SDS011;3430;51.192;6.048;2023-04-19T05:52:16;6.33;;;5.53;;
6785;SDS011;3430;51.192;6.048;2023-04-19T05:54:41;7.10;;;5.90;;
6785;SDS011;3430;51.192;6.048;2023-04-19T05:57:08;7.57;;;5.57;;
6785;SDS011;3430;51.192;6.048;2023-04-19T05:59:34;12.27;;;5.67;;
6785;SDS011;3430;51.192;6.048;2023-04-19T06:01:59;6.17;;;5.03;;
6785;SDS011;3430;51.192;6.048;2023-04-19T06:04:25;5.73;;;5.13;;
6785;SDS011;3430;51.192;6.048;2023-04-19T06:06:50;6.60;;;5.23;;
6785;SDS011;3430;51.192;6.048;2023-04-19T06:09:16;6.17;;;5.23;;
6785;SDS011;3430;51.192;6.048;2023-04-19T06:11:42;6.17;;;5.50;;
6785;SDS011;3430;51.192;6.048;2023-04-19T06:14:08;5.70;;;5.13;;
6785;SDS011;3430;51.192;6.048;2023-04-19T06:16:34;7.43;;;5.70;;
6785;SDS011;3430;51.192;6.048;2023-04-19T06:18:59;7.27;;;5.60;;
6785;SDS011;3430;51.192;6.048;2023-04-19T06:21:24;7.43;;;5.57;;
6785;SDS011;3430;51.192;6.048;2023-04-19T06:23:50;5.77;;;5.17;;
6785;SDS011;3430;51.192;6.048;2023-04-19T06:26:16;5.83;;;5.17;;
6785;SDS011;3430;51.192;6.048;2023-04-19T06:28:41;10.87;;;5.17;;
6785;SDS011;3430;51.192;6.048;2023-04-19T06:31:06;6.17;;;5.00;;
6785;SDS011;3430;51.192;6.048;2023-04-19T06:33:32;6.03;;;4.73;;
6785;SDS011;3430;51.192;6.048;2023-04-19T06:35:57;5.67;;;4.83;;
6785;SDS011;3430;51.192;6.048;2023-04-19T06:38:22;5.70;;;5.10;;
6785;SDS011;3430;51.192;6.048;2023-04-19T06:40:48;6.27;;;5.03;;
6785;SDS011;3430;51.192;6.048;2023-04-19T06:43:13;6.47;;;4.97;;
6785;SDS011;3430;51.192;6.048;2023-04-19T06:45:38;4.93;;;4.43;;
6785;SDS011;3430;51.192;6.048;2023-04-19T06:48:04;7.47;;;4.83;;
6785;SDS011;3430;51.192;6.048;2023-04-19T06:50:29;5.67;;;4.77;;
6785;SDS011;3430;51.192;6.048;2023-04-19T06:52:54;5.40;;;4.90;;
6785;SDS011;3430;51.192;6.048;2023-04-19T06:55:20;5.03;;;4.60;;
6785;SDS011;3430;51.192;6.048;2023-04-19T06:57:46;5.70;;;4.63;;
6785;SDS011;3430;51.192;6.048;2023-04-19T07:00:11;5.83;;;5.10;;
6785;SDS011;3430;51.192;6.048;2023-04-19T07:02:37;6.40;;;4.43;;
6785;SDS011;3430;51.192;6.048;2023-04-19T07:05:03;5.13;;;4.63;;
6785;SDS011;3430;51.192;6.048;2023-04-19T07:07:28;5.37;;;4.50;;
6785;SDS011;3430;51.192;6.048;2023-04-19T07:09:54;5.13;;;4.63;;
6785;SDS011;3430;51.192;6.048;2023-04-19T07:12:19;5.00;;;4.50;;
6785;SDS011;3430;51.192;6.048;2023-04-19T07:14:44;6.80;;;4.97;;
6785;SDS011;3430;51.192;6.048;2023-04-19T07:17:09;6.30;;;5.27;;
6785;SDS011;3430;51.192;6.048;2023-04-19T07:19:35;5.80;;;4.80;;
6785;SDS011;3430;51.192;6.048;2023-04-19T07:22:00;4.73;;;4.23;;
6785;SDS011;3430;51.192;6.048;2023-04-19T07:24:27;6.20;;;4.83;;
6785;SDS011;3430;51.192;6.048;2023-04-19T07:26:54;5.37;;;4.87;;
6785;SDS011;3430;51.192;6.048;2023-04-19T07:29:20;5.50;;;4.40;;
6785;SDS011;3430;51.192;6.048;2023-04-19T07:31:45;5.00;;;4.50;;
6785;SDS011;3430;51.192;6.048;2023-04-19T07:34:10;5.37;;;3.90;;
6785;SDS011;3430;51.192;6.048;2023-04-19T07:36:36;5.33;;;4.23;;
6785;SDS011;3430;51.192;6.048;2023-04-19T07:39:01;5.00;;;4.27;;
6785;SDS011;3430;51.192;6.048;2023-04-19T07:41:27;6.67;;;4.67;;
6785;SDS011;3430;51.192;6.048;2023-04-19T07:43:52;7.73;;;5.20;;
6785;SDS011;3430;51.192;6.048;2023-04-19T07:46:18;5.00;;;4.30;;
6785;SDS011;3430;51.192;6.048;2023-04-19T07:48:43;5.60;;;4.50;;
6785;SDS011;3430;51.192;6.048;2023-04-19T07:51:12;6.97;;;4.63;;
6785;SDS011;3430;51.192;6.048;2023-04-19T07:53:38;5.63;;;4.97;;
6785;SDS011;3430;51.192;6.048;2023-04-19T07:56:04;5.40;;;4.37;;
6785;SDS011;3430;51.192;6.048;2023-04-19T07:58:30;5.67;;;4.70;;
6785;SDS011;3430;51.192;6.048;2023-04-19T08:00:55;5.17;;;4.33;;
6785;SDS011;3430;51.192;6.048;2023-04-19T08:03:20;4.83;;;4.30;;
6785;SDS011;3430;51.192;6.048;2023-04-19T08:05:46;5.07;;;4.40;;
6785;SDS011;3430;51.192;6.048;2023-04-19T08:08:11;5.00;;;4.50;;
6785;SDS011;3430;51.192;6.048;2023-04-19T08:10:36;4.90;;;4.10;;
6785;SDS011;3430;51.192;6.048;2023-04-19T08:13:02;4.83;;;4.23;;
6785;SDS011;3430;51.192;6.048;2023-04-19T08:15:27;5.47;;;4.40;;
6785;SDS011;3430;51.192;6.048;2023-04-19T08:17:52;5.57;;;4.30;;
6785;SDS011;3430;51.192;6.048;2023-04-19T08:20:18;4.97;;;4.30;;
6785;SDS011;3430;51.192;6.048;2023-04-19T08:22:43;5.47;;;4.50;;
6785;SDS011;3430;51.192;6.048;2023-04-19T08:25:09;4.40;;;4.00;;
6785;SDS011;3430;51.192;6.048;2023-04-19T08:27:35;7.47;;;4.70;;
6785;SDS011;3430;51.192;6.048;2023-04-19T08:30:00;5.30;;;4.33;;
6785;SDS011;3430;51.192;6.048;2023-04-19T08:32:26;4.27;;;3.87;;
6785;SDS011;3430;51.192;6.048;2023-04-19T08:34:51;6.53;;;4.23;;
6785;SDS011;3430;51.192;6.048;2023-04-19T08:37:17;4.77;;;4.37;;
6785;SDS011;3430;51.192;6.048;2023-04-19T08:39:42;4.27;;;3.83;;
6785;SDS011;3430;51.192;6.048;2023-04-19T08:42:08;5.43;;;4.40;;
6785;SDS011;3430;51.192;6.048;2023-04-19T08:44:34;7.50;;;4.37;;
6785;SDS011;3430;51.192;6.048;2023-04-19T08:47:02;5.17;;;3.77;;
6785;SDS011;3430;51.192;6.048;2023-04-19T08:49:27;4.83;;;3.90;;
6785;SDS011;3430;51.192;6.048;2023-04-19T08:51:53;4.77;;;4.20;;
6785;SDS011;3430;51.192;6.048;2023-04-19T08:54:19;4.43;;;4.00;;
6785;SDS011;3430;51.192;6.048;2023-04-19T08:56:45;5.57;;;4.00;;
6785;SDS011;3430;51.192;6.048;2023-04-19T08:59:11;5.93;;;4.17;;
6785;SDS011;3430;51.192;6.048;2023-04-19T09:01:37;4.77;;;3.93;;
6785;SDS011;3430;51.192;6.048;2023-04-19T09:04:05;7.27;;;4.30;;
6785;SDS011;3430;51.192;6.048;2023-04-19T09:06:35;5.20;;;4.70;;
6785;SDS011;3430;51.192;6.048;2023-04-19T09:09:20;4.83;;;4.33;;
6785;SDS011;3430;51.192;6.048;2023-04-19T09:11:45;4.87;;;4.40;;
6785;SDS011;3430;51.192;6.048;2023-04-19T09:14:12;5.40;;;4.00;;
6785;SDS011;3430;51.192;6.048;2023-04-19T09:16:37;5.07;;;4.10;;
6785;SDS011;3430;51.192;6.048;2023-04-19T09:19:04;4.50;;;4.00;;
6785;SDS011;3430;51.192;6.048;2023-04-19T09:21:30;4.40;;;4.00;;
6785;SDS011;3430;51.192;6.048;2023-04-19T09:23:55;7.10;;;4.20;;
6785;SDS011;3430;51.192;6.048;2023-04-19T09:26:21;5.73;;;4.27;;
6785;SDS011;3430;51.192;6.048;2023-04-19T09:28:56;6.03;;;3.80;;
6785;SDS011;3430;51.192;6.048;2023-04-19T09:31:22;4.43;;;4.03;;
6785;SDS011;3430;51.192;6.048;2023-04-19T09:33:47;4.43;;;4.03;;
6785;SDS011;3430;51.192;6.048;2023-04-19T09:36:25;4.57;;;4.03;;
6785;SDS011;3430;51.192;6.048;2023-04-19T09:38:51;4.60;;;4.20;;
6785;SDS011;3430;51.192;6.048;2023-04-19T09:41:16;4.83;;;4.00;;
6785;SDS011;3430;51.192;6.048;2023-04-19T09:43:42;4.97;;;3.73;;
6785;SDS011;3430;51.192;6.048;2023-04-19T09:46:07;3.80;;;3.40;;
6785;SDS011;3430;51.192;6.048;2023-04-19T09:48:33;4.63;;;3.63;;
6785;SDS011;3430;51.192;6.048;2023-04-19T09:50:59;6.87;;;4.40;;
6785;SDS011;3430;51.192;6.048;2023-04-19T09:53:26;4.53;;;3.80;;
6785;SDS011;3430;51.192;6.048;2023-04-19T09:55:51;3.97;;;3.53;;
6785;SDS011;3430;51.192;6.048;2023-04-19T09:58:17;3.87;;;3.47;;
6785;SDS011;3430;51.192;6.048;2023-04-19T10:00:43;4.63;;;3.60;;
6785;SDS011;3430;51.192;6.048;2023-04-19T10:03:09;4.33;;;3.57;;
6785;SDS011;3430;51.192;6.048;2023-04-19T10:05:38;3.83;;;3.33;;
6785;SDS011;3430;51.192;6.048;2023-04-19T10:08:06;4.70;;;3.60;;
6785;SDS011;3430;51.192;6.048;2023-04-19T10:10:31;4.67;;;3.80;;
6785;SDS011;3430;51.192;6.048;2023-04-19T10:12:57;4.10;;;3.53;;
6785;SDS011;3430;51.192;6.048;2023-04-19T10:15:23;5.17;;;3.80;;
6785;SDS011;3430;51.192;6.048;2023-04-19T10:17:49;4.40;;;3.77;;
6785;SDS011;3430;51.192;6.048;2023-04-19T10:23:00;3.80;;;3.40;;
6785;SDS011;3430;51.192;6.048;2023-04-19T10:25:29;4.60;;;3.77;;
6785;SDS011;3430;51.192;6.048;2023-04-19T10:27:55;4.37;;;3.23;;
6785;SDS011;3430;51.192;6.048;2023-04-19T10:30:21;6.70;;;4.00;;
6785;SDS011;3430;51.192;6.048;2023-04-19T10:33:05;6.17;;;3.23;;
6785;SDS011;3430;51.192;6.048;2023-04-19T10:35:35;3.77;;;3.37;;
6785;SDS011;3430;51.192;6.048;2023-04-19T10:38:02;4.00;;;3.60;;
6785;SDS011;3430;51.192;6.048;2023-04-19T10:45:37;3.90;;;3.40;;
6785;SDS011;3430;51.192;6.048;2023-04-19T10:48:03;4.20;;;3.50;;
6785;SDS011;3430;51.192;6.048;2023-04-19T10:50:28;5.43;;;3.50;;
6785;SDS011;3430;51.192;6.048;2023-04-19T10:52:54;3.33;;;3.00;;
6785;SDS011;3430;51.192;6.048;2023-04-19T10:55:19;3.80;;;3.40;;
6785;SDS011;3430;51.192;6.048;2023-04-19T10:58:01;3.63;;;3.13;;
6785;SDS011;3430;51.192;6.048;2023-04-19T11:00:29;4.07;;;3.47;;
6785;SDS011;3430;51.192;6.048;2023-04-19T11:02:57;3.73;;;3.37;;
6785;SDS011;3430;51.192;6.048;2023-04-19T11:05:22;3.43;;;3.17;;
6785;SDS011;3430;51.192;6.048;2023-04-19T11:07:48;4.40;;;3.33;;
6785;SDS011;3430;51.192;6.048;2023-04-19T11:10:14;5.57;;;3.50;;
6785;SDS011;3430;51.192;6.048;2023-04-19T11:12:51;4.60;;;3.47;;
6785;SDS011;3430;51.192;6.048;2023-04-19T11:15:16;3.40;;;3.10;;
6785;SDS011;3430;51.192;6.048;2023-04-19T11:17:48;3.07;;;2.87;;
6785;SDS011;3430;51.192;6.048;2023-04-19T11:20:13;3.40;;;3.10;;
6785;SDS011;3430;51.192;6.048;2023-04-19T11:22:43;3.23;;;2.93;;
6785;SDS011;3430;51.192;6.048;2023-04-19T11:27:42;3.13;;;2.63;;
6785;SDS011;3430;51.192;6.048;2023-04-19T11:32:33;4.10;;;2.97;;
6785;SDS011;3430;51.192;6.048;2023-04-19T11:35:06;3.87;;;3.20;;
6785;SDS011;3430;51.192;6.048;2023-04-19T11:37:32;2.77;;;2.53;;
6785;SDS011;3430;51.192;6.048;2023-04-19T11:39:57;2.57;;;2.43;;
6785;SDS011;3430;51.192;6.048;2023-04-19T11:42:23;4.00;;;2.90;;
6785;SDS011;3430;51.192;6.048;2023-04-19T11:44:49;3.10;;;2.80;;
6785;SDS011;3430;51.192;6.048;2023-04-19T11:47:15;4.97;;;2.70;;
6785;SDS011;3430;51.192;6.048;2023-04-19T11:49:40;3.33;;;2.97;;
6785;SDS011;3430;51.192;6.048;2023-04-19T11:52:05;4.43;;;3.07;;
6785;SDS011;3430;51.192;6.048;2023-04-19T11:54:31;4.83;;;3.10;;
6785;SDS011;3430;51.192;6.048;2023-04-19T11:57:03;3.70;;;2.90;;
6785;SDS011;3430;51.192;6.048;2023-04-19T11:59:29;4.27;;;3.07;;
6785;SDS011;3430;51.192;6.048;2023-04-19T12:01:55;2.97;;;2.73;;
6785;SDS011;3430;51.192;6.048;2023-04-19T12:04:21;5.93;;;2.80;;
6785;SDS011;3430;51.192;6.048;2023-04-19T12:06:54;3.70;;;2.87;;
6785;SDS011;3430;51.192;6.048;2023-04-19T12:09:20;5.40;;;3.10;;
6785;SDS011;3430;51.192;6.048;2023-04-19T12:11:46;2.60;;;2.40;;
6785;SDS011;3430;51.192;6.048;2023-04-19T12:14:16;2.80;;;2.57;;
6785;SDS011;3430;51.192;6.048;2023-04-19T12:16:43;3.07;;;2.77;;
6785;SDS011;3430;51.192;6.048;2023-04-19T12:19:10;3.40;;;3.10;;
6785;SDS011;3430;51.192;6.048;2023-04-19T12:21:37;2.70;;;2.50;;
6785;SDS011;3430;51.192;6.048;2023-04-19T12:24:03;3.53;;;2.90;;
6785;SDS011;3430;51.192;6.048;2023-04-19T12:26:28;2.97;;;2.43;;
6785;SDS011;3430;51.192;6.048;2023-04-19T12:28:54;2.70;;;2.50;;
6785;SDS011;3430;51.192;6.048;2023-04-19T12:31:20;9.00;;;2.73;;
6785;SDS011;3430;51.192;6.048;2023-04-19T12:33:45;3.40;;;2.47;;
6785;SDS011;3430;51.192;6.048;2023-04-19T12:36:11;2.83;;;2.50;;
6785;SDS011;3430;51.192;6.048;2023-04-19T12:38:36;3.33;;;2.70;;
6785;SDS011;3430;51.192;6.048;2023-04-19T12:41:01;2.60;;;2.40;;
6785;SDS011;3430;51.192;6.048;2023-04-19T12:43:27;4.80;;;2.40;;
6785;SDS011;3430;51.192;6.048;2023-04-19T12:45:54;5.63;;;2.87;;
6785;SDS011;3430;51.192;6.048;2023-04-19T12:48:19;4.00;;;3.10;;
6785;SDS011;3430;51.192;6.048;2023-04-19T12:50:45;2.90;;;2.60;;
6785;SDS011;3430;51.192;6.048;2023-04-19T12:53:10;4.87;;;2.50;;
6785;SDS011;3430;51.192;6.048;2023-04-19T12:55:36;4.30;;;2.57;;
6785;SDS011;3430;51.192;6.048;2023-04-19T12:58:02;2.67;;;2.47;;
6785;SDS011;3430;51.192;6.048;2023-04-19T13:00:27;3.63;;;2.60;;
6785;SDS011;3430;51.192;6.048;2023-04-19T13:02:54;2.97;;;2.57;;
6785;SDS011;3430;51.192;6.048;2023-04-19T13:05:20;4.00;;;2.90;;
6785;SDS011;3430;51.192;6.048;2023-04-19T13:07:45;7.73;;;2.40;;
6785;SDS011;3430;51.192;6.048;2023-04-19T13:10:10;3.97;;;2.40;;
6785;SDS011;3430;51.192;6.048;2023-04-19T13:12:36;2.53;;;2.33;;
6785;SDS011;3430;51.192;6.048;2023-04-19T13:15:01;5.93;;;2.73;;
6785;SDS011;3430;51.192;6.048;2023-04-19T13:17:27;2.90;;;2.33;;
6785;SDS011;3430;51.192;6.048;2023-04-19T13:19:53;3.27;;;2.97;;
6785;SDS011;3430;51.192;6.048;2023-04-19T13:22:18;2.87;;;2.50;;
6785;SDS011;3430;51.192;6.048;2023-04-19T13:24:44;3.30;;;3.00;;
6785;SDS011;3430;51.192;6.048;2023-04-19T13:27:09;2.67;;;2.47;;
6785;SDS011;3430;51.192;6.048;2023-04-19T13:29:35;3.37;;;2.83;;
6785;SDS011;3430;51.192;6.048;2023-04-19T13:32:00;2.70;;;2.50;;
6785;SDS011;3430;51.192;6.048;2023-04-19T13:34:26;3.37;;;2.63;;
6785;SDS011;3430;51.192;6.048;2023-04-19T13:36:51;3.97;;;2.93;;
6785;SDS011;3430;51.192;6.048;2023-04-19T13:39:16;2.97;;;2.63;;
6785;SDS011;3430;51.192;6.048;2023-04-19T13:41:42;3.07;;;2.77;;
6785;SDS011;3430;51.192;6.048;2023-04-19T13:44:07;3.07;;;2.70;;
6785;SDS011;3430;51.192;6.048;2023-04-19T13:46:32;6.90;;;2.83;;
6785;SDS011;3430;51.192;6.048;2023-04-19T13:48:58;3.23;;;2.97;;
6785;SDS011;3430;51.192;6.048;2023-04-19T13:51:23;2.50;;;2.30;;
6785;SDS011;3430;51.192;6.048;2023-04-19T13:53:48;3.73;;;2.53;;
6785;SDS011;3430;51.192;6.048;2023-04-19T13:56:14;2.87;;;2.67;;
6785;SDS011;3430;51.192;6.048;2023-04-19T13:58:39;3.67;;;2.73;;
6785;SDS011;3430;51.192;6.048;2023-04-19T14:01:04;5.33;;;2.77;;
6785;SDS011;3430;51.192;6.048;2023-04-19T14:03:30;2.87;;;2.67;;
6785;SDS011;3430;51.192;6.048;2023-04-19T14:05:55;2.93;;;2.70;;
6785;SDS011;3430;51.192;6.048;2023-04-19T14:08:21;3.20;;;2.57;;
6785;SDS011;3430;51.192;6.048;2023-04-19T14:10:46;2.70;;;2.50;;
6785;SDS011;3430;51.192;6.048;2023-04-19T14:13:11;4.00;;;2.30;;
6785;SDS011;3430;51.192;6.048;2023-04-19T14:15:37;6.20;;;2.93;;
6785;SDS011;3430;51.192;6.048;2023-04-19T14:18:02;5.30;;;2.50;;
6785;SDS011;3430;51.192;6.048;2023-04-19T14:20:27;4.93;;;2.70;;
6785;SDS011;3430;51.192;6.048;2023-04-19T14:22:52;3.17;;;2.50;;
6785;SDS011;3430;51.192;6.048;2023-04-19T14:25:20;2.83;;;2.47;;
6785;SDS011;3430;51.192;6.048;2023-04-19T14:27:45;2.43;;;2.23;;
6785;SDS011;3430;51.192;6.048;2023-04-19T14:30:11;2.83;;;2.57;;
6785;SDS011;3430;51.192;6.048;2023-04-19T14:32:36;4.93;;;3.00;;
6785;SDS011;3430;51.192;6.048;2023-04-19T14:35:02;2.97;;;2.73;;
6785;SDS011;3430;51.192;6.048;2023-04-19T14:37:27;5.23;;;2.70;;
6785;SDS011;3430;51.192;6.048;2023-04-19T14:39:53;4.23;;;2.90;;
6785;SDS011;3430;51.192;6.048;2023-04-19T14:42:18;3.00;;;2.70;;
6785;SDS011;3430;51.192;6.048;2023-04-19T14:44:43;2.80;;;2.53;;
6785;SDS011;3430;51.192;6.048;2023-04-19T14:47:10;3.90;;;2.70;;
6785;SDS011;3430;51.192;6.048;2023-04-19T14:49:35;2.90;;;2.23;;
6785;SDS011;3430;51.192;6.048;2023-04-19T14:52:01;3.57;;;2.47;;
6785;SDS011;3430;51.192;6.048;2023-04-19T14:54:27;4.37;;;2.53;;
6785;SDS011;3430;51.192;6.048;2023-04-19T14:56:53;3.00;;;2.70;;
6785;SDS011;3430;51.192;6.048;2023-04-19T14:59:18;3.97;;;2.70;;
6785;SDS011;3430;51.192;6.048;2023-04-19T15:01:43;2.93;;;2.37;;
6785;SDS011;3430;51.192;6.048;2023-04-19T15:04:09;3.47;;;2.80;;
6785;SDS011;3430;51.192;6.048;2023-04-19T15:06:34;3.33;;;2.67;;
6785;SDS011;3430;51.192;6.048;2023-04-19T15:09:00;3.73;;;2.70;;
6785;SDS011;3430;51.192;6.048;2023-04-19T15:11:25;2.60;;;2.40;;
6785;SDS011;3430;51.192;6.048;2023-04-19T15:13:51;3.40;;;2.80;;
6785;SDS011;3430;51.192;6.048;2023-04-19T15:16:16;3.40;;;2.90;;
6785;SDS011;3430;51.192;6.048;2023-04-19T15:18:41;2.87;;;2.67;;
6785;SDS011;3430;51.192;6.048;2023-04-19T15:21:06;4.83;;;2.80;;